Pagrindinis puslapis
METAR-TAF:

METAR-TAF

Oro uostai :

Orange Municipal Airport

Orange, Masačusetsas, Jungtinės Amerikos Valstijos

platuma: 42-34-18N, ilguma: 072-16-39W, Aukštis: 169 m

Dabartinis oras

Ataskaita buvo paskelbta 1 valandą ir 5 minutes, ne 05:52 UTC
Vėjas 10 kt iš Vakarų/Pietvakarių su gūsio iki 21 kt
Temperatūra -2°C
Drėgmė 39%
Slėgis 1004 hPa
Matomumas: 16.1 km
Su prošvaistėmis ne aukštis 6500 ft

METAR: KORE 280552Z AUTO 25010G21KT 10SM BKN065 M02/M14 A2965 RMK AO2 SLP046 T10221144 10000 21022 52008

Laikas: 01:57 (06:57 UTC)


TAF: trūkstamas

Orai ataskaitas ir orų prognozės (METAR, TAF).

turimą stotys yra geltonos ir raudonos taškus žemėlapyje.

Perkelti pele per norėdami pamatyti stoties vardą.

Tada spustelėkite, norėdami matyti oro stebėjimo ir prognozės.

Norėdami pakeisti žemėlapį: spustelėkite ant žalios mygtukų su juodo kryžiaus žemyn,; žalią mygtuką su brūkšneliu, jei norite nutolinti; arba žalių rodyklių gretimoms žemėlapius.


METAR-TAF: